createdAt,value
2019-01-21T00:00:33.063Z,14.00
2019-01-21T00:03:14.055Z,13.87
2019-01-21T00:05:37.114Z,13.20
2019-01-21T00:08:06.070Z,13.07
2019-01-21T00:10:38.544Z,13.53
2019-01-21T00:13:07.194Z,13.43
2019-01-21T00:15:35.915Z,13.10
2019-01-21T00:18:04.851Z,13.57
2019-01-21T00:20:33.425Z,13.10
2019-01-21T00:23:02.518Z,13.00
2019-01-21T00:25:31.214Z,13.73
2019-01-21T00:27:59.868Z,13.90
2019-01-21T00:30:28.519Z,14.47
2019-01-21T00:32:59.817Z,13.80
2019-01-21T00:35:28.379Z,14.50
2019-01-21T00:37:57.418Z,12.27
2019-01-21T00:40:28.975Z,13.33
2019-01-21T00:42:57.566Z,13.53
2019-01-21T00:45:26.321Z,13.73
2019-01-21T00:47:54.949Z,13.37
2019-01-21T00:50:23.569Z,12.93
2019-01-21T00:52:52.529Z,13.07
2019-01-21T00:55:21.025Z,13.87
2019-01-21T00:57:49.575Z,13.23
2019-01-21T01:00:21.124Z,13.30
2019-01-21T01:02:49.828Z,13.20
2019-01-21T01:05:21.558Z,13.67
2019-01-21T01:07:50.203Z,12.77
2019-01-21T01:10:21.773Z,12.57
2019-01-21T01:12:50.328Z,13.00
2019-01-21T01:15:21.629Z,14.00
2019-01-21T01:17:50.111Z,13.37
2019-01-21T01:20:19.919Z,13.50
2019-01-21T01:22:48.539Z,13.57
2019-01-21T01:25:19.937Z,13.50
2019-01-21T01:27:48.517Z,13.83
2019-01-21T01:30:18.611Z,12.83
2019-01-21T01:32:47.220Z,13.87
2019-01-21T01:35:16.120Z,14.10
2019-01-21T01:37:45.269Z,13.03
2019-01-21T01:40:15.774Z,13.27
2019-01-21T01:42:44.458Z,13.23
2019-01-21T01:45:19.165Z,12.57
2019-01-21T01:47:47.701Z,13.47
2019-01-21T01:50:16.716Z,12.83
2019-01-21T01:52:45.296Z,12.30
2019-01-21T01:55:14.255Z,12.80
2019-01-21T01:57:42.811Z,13.50
2019-01-21T02:00:15.396Z,11.63
2019-01-21T02:02:44.016Z,12.63
2019-01-21T02:05:12.701Z,13.10
2019-01-21T02:07:41.372Z,13.30
2019-01-21T02:10:12.376Z,12.13
2019-01-21T02:12:41.082Z,13.20
2019-01-21T02:15:15.387Z,12.67
2019-01-21T02:17:51.992Z,12.87
2019-01-21T02:20:18.649Z,12.90
2019-01-21T02:22:53.160Z,12.63
2019-01-21T02:25:24.790Z,13.33
2019-01-21T02:28:05.532Z,12.87
2019-01-21T02:30:42.654Z,12.43
2019-01-21T02:33:45.621Z,12.43
2019-01-21T02:36:20.121Z,12.73
2019-01-21T02:39:04.337Z,12.03
2019-01-21T02:41:37.204Z,12.00
2019-01-21T02:44:20.674Z,13.10
2019-01-21T02:46:52.284Z,13.10
2019-01-21T02:49:32.643Z,12.97
2019-01-21T02:52:29.388Z,12.70
2019-01-21T02:55:06.502Z,12.90
2019-01-21T02:57:40.888Z,13.07
2019-01-21T03:00:18.299Z,13.13
2019-01-21T03:02:52.869Z,13.13
2019-01-21T03:05:30.591Z,12.63
2019-01-21T03:08:23.229Z,13.10
2019-01-21T03:10:58.247Z,13.37
2019-01-21T03:13:49.154Z,12.23
2019-01-21T03:16:23.489Z,13.90
2019-01-21T03:19:00.784Z,13.03
2019-01-21T03:21:44.702Z,13.53
2019-01-21T03:24:28.099Z,14.27
2019-01-21T03:27:14.413Z,14.33
2019-01-21T03:30:02.545Z,13.60
2019-01-21T03:32:49.593Z,15.57
2019-01-21T03:35:32.893Z,14.00
2019-01-21T03:38:11.157Z,15.00
2019-01-21T03:40:51.489Z,15.63
2019-01-21T03:43:32.194Z,14.70
2019-01-21T03:46:09.924Z,14.83
2019-01-21T03:48:40.314Z,15.57
2019-01-21T03:51:27.031Z,14.83
2019-01-21T03:54:04.648Z,16.43
2019-01-21T03:56:36.323Z,15.20
2019-01-21T03:59:19.995Z,14.90
2019-01-21T04:02:11.197Z,14.50
2019-01-21T04:05:03.688Z,15.10
2019-01-21T04:07:40.799Z,14.80
2019-01-21T04:10:40.888Z,16.07
2019-01-21T04:13:27.231Z,14.40
2019-01-21T04:15:58.852Z,15.50
2019-01-21T04:18:49.685Z,14.03
2019-01-21T04:21:37.537Z,15.20
2019-01-21T04:24:31.486Z,15.23
2019-01-21T04:27:11.587Z,15.40
2019-01-21T04:29:57.841Z,15.37
2019-01-21T04:32:59.533Z,15.93
2019-01-21T04:35:31.187Z,15.57
2019-01-21T04:38:14.683Z,15.03
2019-01-21T04:40:51.969Z,15.60
2019-01-21T04:43:26.654Z,15.53
2019-01-21T04:46:07.099Z,15.13
2019-01-21T04:48:47.455Z,15.67
2019-01-21T04:51:24.624Z,16.07
2019-01-21T04:53:59.189Z,15.33
2019-01-21T04:56:52.957Z,16.40
2019-01-21T04:59:39.062Z,15.90
2019-01-21T05:02:13.632Z,15.70
2019-01-21T05:04:51.223Z,15.40
2019-01-21T05:07:45.290Z,15.63
2019-01-21T05:10:30.445Z,16.00
2019-01-21T05:13:05.365Z,16.73
2019-01-21T05:15:53.236Z,15.67
2019-01-21T05:18:40.966Z,16.70
2019-01-21T05:21:24.809Z,15.43
2019-01-21T05:24:01.903Z,15.97
2019-01-21T05:26:51.304Z,17.57
2019-01-21T05:29:37.837Z,16.07
2019-01-21T05:32:27.449Z,15.60
2019-01-21T05:35:05.565Z,16.67
2019-01-21T05:37:42.738Z,16.63
2019-01-21T05:40:20.242Z,16.67
2019-01-21T05:43:16.696Z,16.63
2019-01-21T05:46:00.365Z,16.20
2019-01-21T05:48:48.876Z,16.63
2019-01-21T05:51:31.206Z,17.10
2019-01-21T05:54:14.829Z,17.13
2019-01-21T05:56:55.747Z,16.57
2019-01-21T05:59:47.955Z,15.40
2019-01-21T06:02:38.733Z,17.30
2019-01-21T06:05:19.168Z,16.73
2019-01-21T06:07:53.304Z,17.40
2019-01-21T06:10:39.338Z,16.57
2019-01-21T06:13:16.458Z,17.37
2019-01-21T06:15:54.032Z,15.97
2019-01-21T06:18:37.314Z,15.40
2019-01-21T06:21:18.642Z,16.13
2019-01-21T06:24:14.317Z,16.00
2019-01-21T06:27:06.237Z,15.83
2019-01-21T06:29:40.635Z,16.40
2019-01-21T06:32:22.946Z,16.03
2019-01-21T06:34:54.621Z,16.90
2019-01-21T06:37:36.218Z,16.80
2019-01-21T06:40:36.343Z,15.80
2019-01-21T06:43:21.056Z,16.83
2019-01-21T06:46:07.392Z,16.70
2019-01-21T06:48:44.571Z,17.47
2019-01-21T06:51:31.172Z,16.77
2019-01-21T06:54:05.713Z,16.20
2019-01-21T06:56:56.564Z,16.83
2019-01-21T06:59:28.224Z,17.03
2019-01-21T07:02:10.401Z,17.23
2019-01-21T07:05:16.543Z,17.57
2019-01-21T07:07:57.285Z,16.80
2019-01-21T07:10:33.316Z,16.97
2019-01-21T07:13:08.254Z,17.37
2019-01-21T07:15:42.618Z,17.87
2019-01-21T07:18:33.383Z,17.07
2019-01-21T07:21:22.543Z,17.17
2019-01-21T07:24:22.305Z,17.60
2019-01-21T07:27:08.957Z,17.70
2019-01-21T07:29:46.601Z,17.83
2019-01-21T07:32:20.771Z,17.37
2019-01-21T07:34:53.963Z,16.80
2019-01-21T07:37:33.031Z,16.60
2019-01-21T07:40:07.519Z,16.23
2019-01-21T07:42:39.175Z,16.93
2019-01-21T07:45:16.351Z,16.07
2019-01-21T07:47:57.030Z,15.90
2019-01-21T07:50:31.346Z,15.93
2019-01-21T07:53:31.440Z,16.83
2019-01-21T07:56:19.365Z,15.63
2019-01-21T07:59:07.498Z,16.63
2019-01-21T08:01:54.121Z,16.60
2019-01-21T08:04:31.627Z,16.07
2019-01-21T08:07:03.333Z,16.83
2019-01-21T08:09:35.005Z,16.53
2019-01-21T08:12:32.179Z,16.37
2019-01-21T08:15:21.686Z,15.93
2019-01-21T08:18:10.097Z,14.27
2019-01-21T08:20:52.957Z,14.97
2019-01-21T08:23:42.352Z,15.90
2019-01-21T08:26:14.055Z,15.37
2019-01-21T08:29:00.247Z,17.07
2019-01-21T08:31:31.905Z,16.40
2019-01-21T08:34:18.411Z,16.77
2019-01-21T08:37:06.208Z,16.13
2019-01-21T08:40:07.719Z,16.77
2019-01-21T08:42:48.491Z,15.97
2019-01-21T08:45:31.825Z,16.53
2019-01-21T08:48:21.335Z,16.80
2019-01-21T08:51:10.667Z,17.83
2019-01-21T08:53:51.054Z,17.40
2019-01-21T08:56:49.494Z,18.70
2019-01-21T08:59:26.838Z,17.90
2019-01-21T09:02:01.413Z,18.40
2019-01-21T09:04:44.955Z,17.73
2019-01-21T09:07:34.486Z,17.57
2019-01-21T09:10:13.188Z,17.90
2019-01-21T09:13:06.962Z,18.17
2019-01-21T09:15:56.619Z,18.93
2019-01-21T09:18:34.178Z,19.40
2019-01-21T09:21:14.431Z,19.53
2019-01-21T09:24:02.527Z,18.67
2019-01-21T09:26:43.678Z,18.77
2019-01-21T09:29:21.005Z,18.77
2019-01-21T09:32:14.104Z,19.77
2019-01-21T09:34:49.866Z,19.00
2019-01-21T09:37:21.538Z,18.47
2019-01-21T09:40:09.554Z,18.37
2019-01-21T09:42:51.766Z,18.77
2019-01-21T09:45:41.107Z,19.57
2019-01-21T09:48:08.547Z,19.10
2019-01-21T09:50:37.283Z,18.80
2019-01-21T09:53:06.481Z,17.73
2019-01-21T09:55:36.580Z,18.83
2019-01-21T09:58:08.128Z,18.00
2019-01-21T10:00:37.717Z,18.07
2019-01-21T10:03:06.410Z,19.03
2019-01-21T10:05:37.061Z,18.53
2019-01-21T10:08:08.719Z,18.27
2019-01-21T10:11:03.183Z,18.37
2019-01-21T10:13:30.094Z,18.17
2019-01-21T10:16:13.327Z,17.97
2019-01-21T10:19:03.059Z,18.97
2019-01-21T10:21:49.563Z,18.37
2019-01-21T10:24:23.885Z,18.67
2019-01-21T10:27:07.193Z,19.57
2019-01-21T10:29:44.872Z,19.80
2019-01-21T10:32:28.020Z,20.33
2019-01-21T10:35:08.494Z,20.07
2019-01-21T10:40:34.090Z,19.77
2019-01-21T10:43:08.342Z,20.27
2019-01-21T10:45:45.538Z,20.70
2019-01-21T10:48:34.833Z,21.67
2019-01-21T10:51:24.086Z,21.03
2019-01-21T10:54:13.397Z,20.00
2019-01-21T10:56:47.928Z,21.00
2019-01-21T10:59:19.550Z,20.93
2019-01-21T11:02:05.166Z,21.23
2019-01-21T11:05:03.633Z,20.03
2019-01-21T11:07:45.752Z,20.30
2019-01-21T11:10:20.288Z,20.33
2019-01-21T11:13:01.518Z,20.40
2019-01-21T11:15:33.170Z,20.97
2019-01-21T11:18:08.044Z,20.40
2019-01-21T11:20:39.663Z,21.20
2019-01-21T11:23:26.030Z,20.20
2019-01-21T11:26:30.340Z,20.13
2019-01-21T11:29:01.999Z,19.73
2019-01-21T11:31:48.683Z,19.50
2019-01-21T11:34:25.815Z,17.53
2019-01-21T11:37:09.059Z,19.87
2019-01-21T11:39:57.295Z,19.27
2019-01-21T11:42:40.810Z,20.07
2019-01-21T11:45:12.486Z,20.23
2019-01-21T11:47:56.062Z,18.93
2019-01-21T11:50:27.709Z,18.97
2019-01-21T11:53:04.979Z,18.90
2019-01-21T11:55:53.122Z,18.53
2019-01-21T11:58:40.986Z,18.37
2019-01-21T12:01:32.071Z,18.60
2019-01-21T12:04:03.683Z,17.73
2019-01-21T12:06:49.718Z,18.67
2019-01-21T12:09:33.281Z,18.47
2019-01-21T12:12:04.939Z,17.43
2019-01-21T12:14:51.270Z,18.30
2019-01-21T12:17:41.910Z,16.63
2019-01-21T12:20:22.411Z,16.90
2019-01-21T12:23:07.220Z,17.47
2019-01-21T12:25:59.470Z,18.03
2019-01-21T12:28:33.784Z,17.97
2019-01-21T12:31:30.754Z,17.80
2019-01-21T12:34:05.454Z,17.43
2019-01-21T12:36:39.873Z,17.90
2019-01-21T12:39:14.219Z,18.10
2019-01-21T12:41:51.505Z,17.20
2019-01-21T12:44:38.882Z,16.07
2019-01-21T12:47:31.401Z,16.23
2019-01-21T12:50:05.525Z,16.40
2019-01-21T12:52:51.966Z,15.60
2019-01-21T12:55:41.555Z,14.63
2019-01-21T12:58:25.038Z,15.57
2019-01-21T13:01:14.589Z,14.90
2019-01-21T13:04:12.785Z,14.30
2019-01-21T13:06:52.831Z,13.83
2019-01-21T13:09:40.704Z,14.27
2019-01-21T13:15:35.892Z,14.17
2019-01-21T13:18:25.605Z,14.87
2019-01-21T13:21:18.257Z,14.37
2019-01-21T13:23:55.608Z,12.70
2019-01-21T13:26:29.886Z,14.23
2019-01-21T13:29:13.309Z,14.80
2019-01-21T13:31:50.638Z,14.67
2019-01-21T13:34:45.933Z,14.23
2019-01-21T13:37:38.172Z,15.57
2019-01-21T13:40:35.049Z,14.87
2019-01-21T13:43:22.509Z,15.33
2019-01-21T13:46:05.822Z,16.03
2019-01-21T13:49:06.052Z,15.37
2019-01-21T13:52:05.965Z,16.87
2019-01-21T15:13:52.498Z,16.73
2019-01-21T15:16:08.431Z,17.33
2019-01-21T15:28:35.997Z,17.10
2019-01-21T15:34:24.828Z,16.93
2019-01-21T15:37:12.977Z,16.53
2019-01-21T17:33:35.635Z,19.53
2019-01-21T17:36:04.356Z,20.60
2019-01-21T17:38:32.924Z,19.53
2019-01-21T17:41:03.210Z,19.23
2019-01-21T17:43:31.781Z,18.23
2019-01-21T17:46:00.413Z,18.13
2019-01-21T17:48:29.051Z,19.47
2019-01-21T17:50:57.915Z,18.93
2019-01-21T17:53:26.494Z,22.33
2019-01-21T17:55:55.051Z,20.97
2019-01-21T17:58:25.907Z,19.80
2019-01-21T18:00:57.196Z,17.90
2019-01-21T18:03:26.217Z,19.03
2019-01-21T18:05:54.766Z,17.40
2019-01-21T18:08:23.483Z,19.27
2019-01-21T18:10:52.106Z,18.97
2019-01-21T18:13:20.688Z,17.63
2019-01-21T18:15:50.100Z,18.67
2019-01-21T18:18:18.719Z,19.47
2019-01-21T18:20:47.307Z,19.30
2019-01-21T18:23:15.907Z,20.20
2019-01-21T18:25:44.558Z,20.17
2019-01-21T18:28:15.290Z,18.57
2019-01-21T18:30:45.548Z,19.60
2019-01-21T18:33:14.101Z,17.90
2019-01-21T18:35:45.735Z,20.20
2019-01-21T18:41:01.960Z,26.60
2019-01-21T18:43:35.522Z,25.77
2019-01-21T18:46:05.230Z,29.50
2019-01-21T18:48:47.301Z,29.87
2019-01-21T18:51:23.212Z,28.27
2019-01-21T18:53:51.808Z,28.10
2019-01-21T18:56:20.384Z,28.40
2019-01-21T18:58:49.024Z,28.23
2019-01-21T19:01:17.518Z,25.50
2019-01-21T19:03:46.102Z,23.53
2019-01-21T19:06:14.723Z,21.33
2019-01-21T19:08:43.285Z,22.53
2019-01-21T19:11:12.739Z,20.10
2019-01-21T19:13:41.289Z,20.57
2019-01-21T19:16:10.042Z,20.33
2019-01-21T19:18:38.624Z,20.20
2019-01-21T19:21:07.198Z,21.47
2019-01-21T19:23:35.831Z,20.97
2019-01-21T19:26:04.743Z,20.70
2019-01-21T19:28:33.310Z,20.17
2019-01-21T19:31:03.532Z,20.90
2019-01-21T19:33:32.270Z,19.87
2019-01-21T19:36:00.841Z,20.23
2019-01-21T19:38:29.390Z,19.63
2019-01-21T19:40:57.937Z,19.40
2019-01-21T19:43:29.619Z,19.57
2019-01-21T19:46:01.522Z,18.57
2019-01-21T19:48:30.123Z,21.00
2019-01-21T19:50:58.685Z,20.07
2019-01-21T19:53:30.249Z,20.00
2019-01-21T19:55:58.839Z,20.50
2019-01-21T19:58:30.190Z,20.17
2019-01-21T20:00:58.747Z,20.07
2019-01-21T20:03:29.506Z,19.20
2019-01-21T20:05:58.346Z,18.70
2019-01-21T20:08:26.995Z,19.00
2019-01-21T20:10:55.622Z,19.53
2019-01-21T20:13:24.145Z,20.33
2019-01-21T20:15:57.761Z,19.63
2019-01-21T20:18:26.742Z,21.20
2019-01-21T20:21:04.415Z,22.00
2019-01-21T20:23:37.522Z,22.33
2019-01-21T20:26:06.373Z,21.80
2019-01-21T20:28:34.954Z,22.77
2019-01-21T20:31:03.616Z,21.90
2019-01-21T20:33:32.277Z,20.80
2019-01-21T20:36:05.340Z,23.10
2019-01-21T20:38:33.966Z,23.20
2019-01-21T20:41:02.619Z,22.63
2019-01-21T20:43:31.222Z,22.70
2019-01-21T20:45:59.891Z,24.07
2019-01-21T20:48:28.449Z,23.33
2019-01-21T20:50:57.081Z,24.93
2019-01-21T20:53:25.671Z,23.77
2019-01-21T20:55:54.585Z,23.40
2019-01-21T20:58:23.144Z,24.23
2019-01-21T21:00:51.689Z,20.50
2019-01-21T21:03:20.372Z,22.97
2019-01-21T21:05:48.944Z,20.57
2019-01-21T21:08:17.525Z,22.60
2019-01-21T21:10:46.050Z,22.17
2019-01-21T21:13:14.679Z,22.00
2019-01-21T21:15:46.262Z,21.33
2019-01-21T21:18:14.848Z,20.17
2019-01-21T21:20:46.476Z,24.40
2019-01-21T21:23:15.851Z,23.87
2019-01-21T21:25:44.475Z,21.40
2019-01-21T21:28:13.072Z,23.67
2019-01-21T21:30:41.697Z,23.83
2019-01-21T21:33:10.354Z,24.03
2019-01-21T21:35:39.021Z,22.67
2019-01-21T21:38:07.579Z,27.30
2019-01-21T21:40:36.139Z,25.13
2019-01-21T21:43:04.858Z,27.47
2019-01-21T21:45:33.672Z,26.40
2019-01-21T21:48:05.188Z,25.47
2019-01-21T21:50:35.363Z,25.00
2019-01-21T21:53:04.089Z,24.20
2019-01-21T21:55:33.437Z,23.70
2019-01-21T21:58:02.088Z,23.07
2019-01-21T22:00:30.793Z,23.40
2019-01-21T22:03:05.404Z,23.20
2019-01-21T22:05:33.988Z,22.30
2019-01-21T22:08:05.492Z,21.83
2019-01-21T22:10:37.097Z,21.23
2019-01-21T22:13:07.230Z,21.73
2019-01-21T22:15:35.857Z,21.97
2019-01-21T22:18:04.574Z,21.37
2019-01-21T22:20:33.163Z,21.70
2019-01-21T22:23:02.072Z,21.00
2019-01-21T22:25:31.388Z,21.73
2019-01-21T22:28:02.791Z,20.80
2019-01-21T22:30:31.408Z,21.70
2019-01-21T22:33:04.526Z,21.37
2019-01-21T22:35:37.485Z,22.37
2019-01-21T22:38:06.119Z,21.27
2019-01-21T22:40:37.365Z,22.00
2019-01-21T22:43:11.323Z,21.83
2019-01-21T22:45:40.213Z,21.57
2019-01-21T22:48:08.790Z,22.23
2019-01-21T22:50:40.432Z,21.47
2019-01-21T22:53:09.018Z,20.97
2019-01-21T22:55:37.553Z,21.33
2019-01-21T22:58:07.746Z,21.83
2019-01-21T23:00:46.783Z,19.63
2019-01-21T23:03:15.468Z,20.53
2019-01-21T23:05:44.098Z,20.60
2019-01-21T23:08:12.941Z,20.60
2019-01-21T23:10:41.575Z,20.40
2019-01-21T23:13:10.142Z,18.70
2019-01-21T23:15:38.869Z,20.10
2019-01-21T23:18:07.824Z,19.17
2019-01-21T23:20:36.378Z,19.77
2019-01-21T23:23:05.497Z,19.10
2019-01-21T23:25:40.048Z,20.00
2019-01-21T23:28:08.840Z,18.60
2019-01-21T23:30:37.398Z,19.67
2019-01-21T23:33:06.100Z,19.53
2019-01-21T23:35:35.041Z,18.60
2019-01-21T23:38:03.762Z,19.20
2019-01-21T23:40:35.251Z,18.33
2019-01-21T23:43:06.604Z,19.40
2019-01-21T23:45:35.407Z,18.57
2019-01-21T23:48:06.824Z,18.93
2019-01-21T23:50:35.410Z,18.20
2019-01-21T23:53:04.198Z,18.97
2019-01-21T23:55:38.203Z,19.83
2019-01-21T23:58:06.721Z,18.13
